Kendalia, Texas
Current Conditions -  °F | °C
As of 10:15 PM on Tuesday 25 Nov 2014 (Local Time) from K5C1 Reporting Station
Clear Clear  
Wind Chill: 45°   Ceiling: Unl
Heat Index: 48°   Visibility: 10mi
Dew Point: 30°   Wind: 7mph
Humidity: 50%   Direction: 230°SW
Pressure: 30.24"   Gusts: NA
Location:  29.97°N, 98.52°W
Report Text: K5C1 260415Z AUTO 23006KT 10SM CLR 09/M01 A3024 RMK AO1
Loading
Personal Weather Stations






























Interactive Weather Map New forecast layout! Learn more

10-Day Weather Forecast

Advertisements
Track Severe Weather on mobile